»·PEaware :: N618DH KVNY-KRAL

N618DH :: KVNY-KRAL

FLIGHT INFORMATION

Flight Status: Arrived
Operator: Privately registered:
United States
More flights under this callsign
Pilot: John R. (32678)
Aircraft: CESSNA 172 SKYHAWK
(C172)
More flights by this aircraft type
Origin: KVNY Van Nuys
United States
Destination: KRAL Riverside Mun
United States
More flights between these airports :: More routes between these airports
Route: ADAMM3 ADAMM V186 PDZ
File this flight plan on PilotEdge
Remarks: TEC route BURP8
Altitude:
(Current/Filed)
5,000ft
Speed:
(Current/Filed)
115kts
Departed: 27-Jan-21 12:38 PM
Arrived: 27-Jan-21 01:14 PM
Distance/Time
Traveled:
54nm/0:35
Distance/Time
To Go:
Arrived

Flight Plot

Page will automatically refresh every two minutes.

Flight plan parsing failed; only flown route is shown


Map Options




Map Legend


Flown Route
Filed Route
Departure Airport
Arrival Airport
Navaid (VOR, NDB)
Fix

Horizontal Profiles

Position Reports

Time Latitude Longitude Heading Altitude Ground
Speed
27-Jan-21 12:21 34.215503 -118.498557 2 805ft 0kts
27-Jan-21 12:22 34.215503 -118.498557 2 805ft 0kts
27-Jan-21 12:23 34.215503 -118.498557 2 805ft 0kts
27-Jan-21 12:24 34.215503 -118.498557 2 805ft 0kts
27-Jan-21 12:25 34.215503 -118.498557 2 805ft 0kts
27-Jan-21 12:26 34.215503 -118.498557 2 805ft 0kts
27-Jan-21 12:28 34.215503 -118.498557 2 805ft 0kts
27-Jan-21 12:30 34.216118 -118.498133 50 805ft 0kts
27-Jan-21 12:31 34.216118 -118.498133 50 805ft 0kts
27-Jan-21 12:32 34.217348 -118.494049 99 805ft 17kts
27-Jan-21 12:33 34.217196 -118.492909 99 805ft 2kts
27-Jan-21 12:34 34.219375 -118.492321 136 805ft 0kts
27-Jan-21 12:35 34.219375 -118.492321 136 805ft 0kts
27-Jan-21 12:36 34.219375 -118.492321 136 805ft 0kts
27-Jan-21 12:37 34.219329 -118.492247 125 805ft 0kts
27-Jan-21 12:37 34.217079 -118.491054 174 805ft 51kts
27-Jan-21 12:38 34.198991 -118.491911 175 1596ft 68kts
27-Jan-21 12:40 34.177698 -118.492023 155 2579ft 64kts
27-Jan-21 12:40 34.169576 -118.477101 125 3278ft 65kts
27-Jan-21 12:42 34.161007 -118.453107 123 4237ft 69kts
27-Jan-21 12:43 34.154395 -118.431339 124 5013ft 76kts
27-Jan-21 12:44 34.156923 -118.396631 91 5031ft 117kts
27-Jan-21 12:45 34.163332 -118.357339 93 5028ft 120kts
27-Jan-21 12:45 34.159711 -118.326892 101 5025ft 116kts
27-Jan-21 12:47 34.156024 -118.283059 114 5030ft 108kts
27-Jan-21 12:48 34.147766 -118.248690 117 5036ft 105kts
27-Jan-21 12:48 34.140075 -118.221158 117 5040ft 103kts
27-Jan-21 12:49 34.130558 -118.188648 117 5045ft 102kts
27-Jan-21 12:50 34.120985 -118.156440 115 5050ft 101kts
27-Jan-21 12:51 34.112079 -118.123638 112 4946ft 105kts
27-Jan-21 12:52 34.103265 -118.089897 110 4639ft 105kts
27-Jan-21 12:53 34.094455 -118.056048 109 4332ft 106kts
27-Jan-21 12:54 34.085450 -118.022006 114 4045ft 105kts
27-Jan-21 12:55 34.072506 -117.992421 113 4037ft 96kts
27-Jan-21 12:56 34.062903 -117.962284 112 4038ft 96kts
27-Jan-21 12:57 34.053279 -117.931999 112 4038ft 96kts
27-Jan-21 12:58 34.043519 -117.901608 112 4038ft 97kts
27-Jan-21 12:59 34.031832 -117.872341 96 3987ft 102kts
27-Jan-21 13:00 34.029905 -117.837895 118 3531ft 108kts
27-Jan-21 13:01 34.020817 -117.803161 100 3093ft 110kts
27-Jan-21 13:02 34.014386 -117.767935 96 3039ft 105kts
27-Jan-21 13:03 34.007969 -117.733495 97 3006ft 108kts
27-Jan-21 13:04 34.001130 -117.698102 98 2538ft 91kts
27-Jan-21 13:05 33.995914 -117.670234 97 2453ft 92kts
27-Jan-21 13:06 33.989390 -117.635953 99 2541ft 112kts
27-Jan-21 13:07 33.982551 -117.600476 99 2542ft 106kts
27-Jan-21 13:08 33.975882 -117.565776 99 2542ft 104kts
27-Jan-21 13:09 33.968542 -117.532999 105 2295ft 99kts
27-Jan-21 13:10 33.963220 -117.500744 96 1651ft 94kts
27-Jan-21 13:11 33.957746 -117.472845 99 1250ft 69kts
27-Jan-21 13:12 33.953944 -117.452425 101 848ft 49kts
27-Jan-21 13:13 33.952808 -117.449026 183 819ft 12kts
27-Jan-21 13:14 33.951308 -117.445753 24 819ft 0kts
27-Jan-21 13:15 33.951308 -117.445753 24 819ft 0kts
27-Jan-21 13:16 33.951308 -117.445753 24 819ft 0kts
27-Jan-21 13:17 33.951308 -117.445753 24 819ft 0kts
27-Jan-21 13:18 33.951308 -117.445753 24 819ft 0kts
27-Jan-21 13:19 33.951308 -117.445753 24 819ft 0kts
27-Jan-21 13:20 33.951308 -117.445753 24 819ft 0kts
27-Jan-21 13:22 33.951308 -117.445753 24 819ft 0kts
27-Jan-21 13:23 33.951308 -117.445753 24 819ft 0kts
27-Jan-21 13:24 33.951308 -117.445753 24 819ft 0kts
27-Jan-21 13:25 33.951308 -117.445753 24 819ft 0kts
27-Jan-21 13:26 33.951308 -117.445753 24 819ft 0kts
27-Jan-21 13:27 33.951308 -117.445753 24 819ft 0kts
27-Jan-21 13:28 33.951308 -117.445753 24 819ft 0kts
27-Jan-21 13:29 33.951308 -117.445753 24 819ft 0kts

Navigation Log

Ident Type
Flight plan parsing failed, navigation log unavailable